^^
Grace C. Lehan Memorial Weather Station Historical Data
Daily Summary for September 19, 2022 Units:  English    Metric   Both
Daily Weekly Monthly Yearly
  High: Low: Average:
Temperature: 83.7 °F 65.5 °F 72.5 °F
Dew Point: 70.2 °F 63.2 °F 66.1 °F
Humidity: 95% 58.9% 82%
Wind Speed: 5.8mph 0mph 0mph
Wind Gust: 25mph - -
Wind- - SW
Pressure: 29.90 in 29.75 in -
Precipitation: 0.22 in    
 
 
Tabular Data for September 19, 2022
Time Temperature Dew Point Pressure Wind Wind Speed Wind Gust Humidity Rainfall Rate (Hourly) solar
00:00 71.1 °F 65.3 °F 29.89 in Calm   1 mph 82% 0.00 in 0 W/m2
00:09 71 °F 65.2 °F 29.89 in Calm     82% 0.00 in 0 W/m2
00:14 70.9 °F 65.3 °F 29.89 in Calm     82.6% 0.00 in 0 W/m2
00:19 70.8 °F 65.4 °F 29.89 in Calm     83% 0.00 in 0 W/m2
00:24 70.7 °F 65.3 °F 29.89 in Calm     83% 0.00 in 0 W/m2
00:29 70.6 °F 65.2 °F 29.89 in Calm     83% 0.00 in 0 W/m2
00:34 70.5 °F 65.4 °F 29.89 in Calm     83.8% 0.00 in 0 W/m2
00:39 70.3 °F 65.3 °F 29.89 in Calm     84% 0.00 in 0 W/m2
00:44 70.2 °F 65.1 °F 29.89 in Calm     84% 0.00 in 0 W/m2
00:49 70.1 °F 65 °F 29.89 in Calm     84.1% 0.00 in 0 W/m2
00:54 69.9 °F 65.2 °F 29.89 in Calm     85% 0.00 in 0 W/m2
00:59 69.8 °F 65.1 °F 29.89 in Calm     85% 0.00 in 0 W/m2
01:04 69.7 °F 64.9 °F 29.89 in Calm     85% 0.00 in 0 W/m2
01:09 69.5 °F 64.8 °F 29.89 in Calm     85% 0.00 in 0 W/m2
01:14 69.4 °F 64.7 °F 29.89 in Calm     85% 0.00 in 0 W/m2
01:19 69.3 °F 64.8 °F 29.88 in Calm     85.7% 0.00 in 0 W/m2
01:24 69.2 °F 64.8 °F 29.88 in Calm     86% 0.00 in 0 W/m2
01:29 69 °F 64.7 °F 29.88 in Calm     86% 0.00 in 0 W/m2
01:34 68.9 °F 64.5 °F 29.88 in Calm     86% 0.00 in 0 W/m2
01:39 68.7 °F 64.4 °F 29.89 in Calm     86.3% 0.00 in 0 W/m2
01:44 68.6 °F 64.5 °F 29.89 in Calm     87% 0.00 in 0 W/m2
01:49 68.4 °F 64.4 °F 29.89 in Calm     87% 0.00 in 0 W/m2
01:54 68.3 °F 64.3 °F 29.89 in Calm     87% 0.00 in 0 W/m2
01:59 68.2 °F 64.2 °F 29.89 in Calm     87.2% 0.00 in 0 W/m2
02:04 68 °F 64.3 °F 29.89 in Calm     87.9% 0.00 in 0 W/m2
02:09 67.9 °F 64.2 °F 29.89 in Calm     88% 0.00 in 0 W/m2
02:14 67.8 °F 64.1 °F 29.89 in Calm     88% 0.00 in 0 W/m2
02:19 67.8 °F 64.1 °F 29.89 in Calm     88% 0.00 in 0 W/m2
02:24 67.6 °F 64 °F 29.89 in Calm     88% 0.00 in 0 W/m2
02:29 67.5 °F 63.8 °F 29.89 in Calm     88% 0.00 in 0 W/m2
02:34 67.3 °F 63.8 °F 29.89 in Calm     88.5% 0.00 in 0 W/m2
02:39 67.1 °F 63.8 °F 29.89 in Calm     89% 0.00 in 0 W/m2
02:44 67 °F 63.6 °F 29.89 in Calm     89% 0.00 in 0 W/m2
02:49 66.8 °F 63.5 °F 29.89 in Calm     89% 0.00 in 0 W/m2
02:54 66.7 °F 63.3 °F 29.89 in Calm     89% 0.00 in 0 W/m2
02:59 66.6 °F 63.3 °F 29.89 in Calm     89% 0.00 in 0 W/m2
03:03 66.6 °F 63.4 °F 29.89 in Calm     89.6% 0.00 in 0 W/m2
03:09 66.6 °F 63.6 °F 29.89 in Calm     90% 0.00 in 0 W/m2
03:14 66.6 °F 63.6 °F 29.89 in Calm     90% 0.00 in 0 W/m2
03:19 66.6 °F 63.5 °F 29.89 in Calm     90% 0.00 in 0 W/m2
03:24 66.5 °F 63.6 °F 29.89 in Calm     90.5% 0.00 in 0 W/m2
03:29 66.5 °F 63.8 °F 29.89 in Calm     91% 0.00 in 0 W/m2
03:34 66.4 °F 63.7 °F 29.88 in Calm     91% 0.00 in 0 W/m2
03:39 66.3 °F 63.6 °F 29.88 in Calm     91% 0.00 in 0 W/m2
03:44 66.3 °F 63.6 °F 29.88 in Calm     91% 0.00 in 0 W/m2
03:49 66.3 °F 63.6 °F 29.88 in Calm     91% 0.00 in 0 W/m2
03:54 66.2 °F 63.5 °F 29.88 in Calm     91% 0.00 in 0 W/m2
03:59 66.2 °F 63.5 °F 29.88 in Calm     91% 0.00 in 0 W/m2
04:00 66.1 °F 63.4 °F 29.88 in Calm     91% 0.00 in 0 W/m2
04:09 66.1 °F 63.4 °F 29.88 in Calm     91% 0.00 in 0 W/m2
04:14 66 °F 63.3 °F 29.88 in Calm     91% 0.00 in 0 W/m2
04:19 66 °F 63.3 °F 29.88 in Calm     91% 0.00 in 0 W/m2
04:24 65.9 °F 63.5 °F 29.88 in Calm     92% 0.00 in 0 W/m2
04:29 65.9 °F 63.5 °F 29.88 in Calm     92% 0.00 in 0 W/m2
04:34 65.9 °F 63.5 °F 29.88 in Calm     92% 0.00 in 0 W/m2
04:38 65.9 °F 63.5 °F 29.88 in Calm     92% 0.00 in 0 W/m2
04:44 65.9 °F 63.5 °F 29.88 in Calm     92% 0.00 in 0 W/m2
04:49 65.9 °F 63.5 °F 29.88 in Calm     92% 0.00 in 0 W/m2
04:54 65.9 °F 63.5 °F 29.88 in Calm     92% 0.00 in 0 W/m2
04:59 65.9 °F 63.5 °F 29.88 in Calm     92% 0.00 in 0 W/m2
05:04 65.8 °F 63.4 °F 29.88 in Calm     92% 0.00 in 0 W/m2
05:09 65.7 °F 63.4 °F 29.88 in Calm     92% 0.00 in 0 W/m2
05:14 65.7 °F 63.3 °F 29.88 in Calm     92% 0.00 in 0 W/m2
05:19 65.7 °F 63.3 °F 29.88 in Calm     92% 0.00 in 0 W/m2
05:24 65.7 °F 63.3 °F 29.88 in Calm     92% 0.00 in 0 W/m2
05:29 65.7 °F 63.3 °F 29.88 in Calm     92% 0.00 in 0 W/m2
05:34 65.7 °F 63.4 °F 29.88 in Calm     92% 0.00 in 0 W/m2
05:39 65.8 °F 63.5 °F 29.88 in Calm     92.4% 0.00 in 0 W/m2
05:44 65.8 °F 63.7 °F 29.88 in Calm     93% 0.00 in 0 W/m2
05:49 65.8 °F 63.7 °F 29.88 in Calm     93% 0.00 in 0 W/m2
05:54 65.8 °F 63.7 °F 29.88 in Calm     93% 0.00 in 0 W/m2
05:59 65.8 °F 63.7 °F 29.88 in Calm     93% 0.00 in 0 W/m2
06:04 65.8 °F 63.5 °F 29.88 in Calm     92.4% 0.00 in 0 W/m2
06:09 65.7 °F 63.4 °F 29.88 in Calm     92% 0.00 in 0 W/m2
06:14 65.7 °F 63.3 °F 29.88 in Calm     92% 0.00 in 0 W/m2
06:19 65.6 °F 63.2 °F 29.88 in Calm     92% 0.00 in 0 W/m2
06:24 65.6 °F 63.2 °F 29.88 in Calm     92% 0.00 in 0 W/m2
06:29 65.6 °F 63.2 °F 29.88 in Calm     92% 0.00 in 0 W/m2
06:34 65.5 °F 63.3 °F 29.88 in Calm     92.4% 0.00 in 0 W/m2
06:39 65.5 °F 63.5 °F 29.88 in Calm     93% 0.00 in 5 W/m2
06:44 65.6 °F 63.5 °F 29.88 in Calm     93% 0.00 in 7 W/m2
06:49 65.6 °F 63.5 °F 29.88 in Calm     93% 0.00 in 7 W/m2
06:54 65.7 °F 63.6 °F 29.88 in Calm     93% 0.00 in 7 W/m2
06:59 65.7 °F 63.6 °F 29.88 in Calm     93% 0.00 in 0 W/m2
07:04 65.8 °F 63.7 °F 29.88 in Calm     93% 0.00 in 0 W/m2
07:09 65.9 °F 63.8 °F 29.89 in Calm     93% 0.00 in 0 W/m2
07:14 65.9 °F 63.8 °F 29.89 in Calm     93% 0.00 in 5 W/m2
07:19 66 °F 63.9 °F 29.89 in Calm     93% 0.00 in 7 W/m2
07:24 66.1 °F 64 °F 29.89 in Calm     93% 0.00 in 9 W/m2
07:29 66.1 °F 64 °F 29.89 in Calm     93% 0.00 in 11 W/m2
07:34 66.2 °F 64.1 °F 29.89 in Calm     93% 0.00 in 11 W/m2
07:39 66.3 °F 64.2 °F 29.89 in Calm     93% 0.00 in 12 W/m2
07:44 66.4 °F 64.3 °F 29.89 in Calm     93% 0.00 in 14 W/m2
07:49 66.5 °F 64.4 °F 29.89 in Calm     93% 0.00 in 16 W/m2
07:54 66.6 °F 64.6 °F 29.89 in Calm     93% 0.00 in 21 W/m2
07:59 66.8 °F 64.7 °F 29.89 in Calm     93% 0.00 in 23 W/m2
08:00 66.8 °F 64.7 °F 29.89 in Calm     93% 0.00 in 21 W/m2
08:09 67 °F 64.9 °F 29.89 in Calm     93% 0.00 in 25 W/m2
08:14 67.1 °F 65 °F 29.89 in Calm     93% 0.00 in 26 W/m2
08:19 67.2 °F 65.1 °F 29.89 in Calm     93% 0.00 in 35 W/m2
08:24 67.3 °F 65.2 °F 29.89 in Calm     93% 0.00 in 44 W/m2
08:29 67.4 °F 65.3 °F 29.89 in Calm     93% 0.00 in 54 W/m2
08:34 67.5 °F 65.3 °F 29.89 in Calm     92.4% 0.00 in 60 W/m2
08:39 67.6 °F 65.2 °F 29.89 in Calm     92% 0.00 in 69 W/m2
08:44 67.8 °F 65.4 °F 29.89 in Calm     92% 0.00 in 81 W/m2
08:49 68 °F 65.6 °F 29.89 in Calm     92% 0.00 in 81 W/m2
08:54 68.1 °F 65.6 °F 29.89 in Calm     91.6% 0.00 in 72 W/m2
08:59 68.3 °F 65.5 °F 29.89 in Calm     91% 0.00 in 60 W/m2
09:04 68.4 °F 65.6 °F 29.90 in Calm     90.8% 0.00 in 60 W/m2
09:09 68.5 °F 65.5 °F 29.90 in Calm     90% 0.00 in 76 W/m2
09:14 68.6 °F 65.6 °F 29.90 in Calm     90% 0.00 in 116 W/m2
09:19 68.8 °F 65.7 °F 29.90 in Calm     90% 0.00 in 158 W/m2
09:24 69 °F 66 °F 29.89 in Calm     90% 0.00 in 172 W/m2
09:29 69.3 °F 66.3 °F 29.89 in Calm     90% 0.00 in 174 W/m2
09:34 69.7 °F 66.7 °F 29.89 in Calm     90% 0.00 in 229 W/m2
09:39 70.1 °F 66.8 °F 29.89 in Calm     89.2% 0.00 in 190 W/m2
09:44 70.5 °F 66.9 °F 29.89 in Calm     88.5% 0.00 in 204 W/m2
09:49 70.9 °F 67.2 °F 29.89 in Calm     88% 0.00 in 327 W/m2
09:54 71.5 °F 67.7 °F 29.89 in Calm     87.6% 0.00 in 677 W/m2
09:59 72.5 °F 68.5 °F 29.89 in Calm     87.2% 0.00 in 619 W/m2
10:04 73.6 °F 68.8 °F 29.89 in Calm     84.8% 0.00 in 341 W/m2
10:09 74.5 °F 68.2 °F 29.89 in Calm     81% 0.00 in 336 W/m2
10:14 75 °F 68.2 °F 29.89 in Calm     79.6% 0.00 in 304 W/m2
10:19 75.4 °F 68.4 °F 29.89 in Calm     79.1% 0.00 in 431 W/m2
10:24 75.9 °F 69 °F 29.88 in Calm     79.1% 0.00 in 431 W/m2
10:29 76.3 °F 68.5 °F 29.88 in Calm     76.9% 0.00 in 341 W/m2
10:34 76.7 °F 69 °F 29.88 in Calm     77.4% 0.00 in 401 W/m2
10:39 77.1 °F 69.2 °F 29.88 in Calm     76.6% 0.00 in 320 W/m2
10:44 77.5 °F 69.3 °F 29.88 in Calm     75.9% 0.00 in 341 W/m2
10:49 77.9 °F 69.4 °F 29.88 in Calm     75% 0.00 in 383 W/m2
10:54 78.3 °F 69.5 °F 29.88 in Calm     74.4% 0.00 in 860 W/m2
10:59 79 °F 69.5 °F 29.88 in Calm     72.7% 0.00 in 768 W/m2
11:04 79.3 °F 68.9 °F 29.88 in Calm     70.4% 0.00 in 250 W/m2
11:09 79.5 °F 69.5 °F 29.87 in Calm     71.6% 0.00 in 708 W/m2
11:14 79.8 °F 70.1 °F 29.87 in Calm     72.3% 0.00 in 694 W/m2
11:19 80.2 °F 69.1 °F 29.86 in Calm     68.8% 0.00 in 693 W/m2
11:24 80.5 °F 69.4 °F 29.86 in Calm     69% 0.00 in 698 W/m2
11:29 80.9 °F 69.7 °F 29.86 in Calm     68.7% 0.00 in 737 W/m2
11:34 81.2 °F 69.2 °F 29.86 in Calm     67% 0.00 in 682 W/m2
11:39 81.2 °F 69.2 °F 29.86 in Calm     66.9% 0.00 in 348 W/m2
11:44 80.9 °F 69.2 °F 29.86 in Calm     67.6% 0.00 in 399 W/m2
11:49 80.7 °F 69.2 °F 29.86 in Calm     68.2% 0.00 in 422 W/m2
11:54 80.4 °F 68.6 °F 29.86 in Calm     67.3% 0.00 in 343 W/m2
11:59 80.4 °F 69.2 °F 29.86 in Calm     68.8% 0.00 in 315 W/m2
12:00 80.3 °F 68.8 °F 29.86 in Calm     68% 0.00 in 315 W/m2
12:09 80.2 °F 68.8 °F 29.86 in Calm     68.3% 0.00 in 230 W/m2
12:14 80 °F 68.7 °F 29.86 in Calm     68.5% 0.00 in 227 W/m2
12:19 79.8 °F 68.6 °F 29.86 in Calm     68.7% 0.00 in 250 W/m2
12:24 79.7 °F 68.6 °F 29.86 in Calm     69% 0.00 in 279 W/m2
12:29 79.6 °F 68.4 °F 29.85 in Calm     68.8% 0.00 in 294 W/m2
12:34 79.5 °F 68.7 °F 29.85 in Calm     69.6% 0.00 in 355 W/m2
12:39 79.7 °F 69.4 °F 29.85 in Calm     70.7% 0.00 in 417 W/m2
12:44 80.2 °F 70.1 °F 29.84 in Calm     71.4% 0.00 in 415 W/m2
12:49 80.7 °F 69.6 °F 29.84 in Calm     69.1% 0.00 in 178 W/m2
12:54 81.1 °F 69.8 °F 29.84 in Calm     68.5% 0.00 in 162 W/m2
12:59 81.3 °F 69.7 °F 29.84 in Calm     67.8% 0.00 in 162 W/m2
13:04 81.5 °F 69.3 °F 29.84 in Calm     66.7% 0.00 in 267 W/m2
13:09 81.5 °F 69.5 °F 29.84 in Calm     67.1% 0.00 in 262 W/m2
13:14 81.5 °F 69.8 °F 29.83 in Calm     67.6% 0.00 in 274 W/m2
13:19 81.5 °F 69.7 °F 29.83 in Calm     67.4% 0.00 in 274 W/m2
13:24 81.6 °F 69.4 °F 29.83 in Calm     66.5% 0.00 in 269 W/m2
13:29 81.8 °F 69.1 °F 29.83 in Calm     65.5% 0.00 in 248 W/m2
13:34 81.9 °F 69.3 °F 29.83 in Calm     65.7% 0.00 in 234 W/m2
13:39 81.8 °F 69.3 °F 29.83 in Calm     65.9% 0.00 in 287 W/m2
13:44 81.7 °F 69.2 °F 29.83 in Calm     66% 0.00 in 288 W/m2
13:49 81.7 °F 69.4 °F 29.82 in SW 0.1 mph 2 mph 66.5% 0.00 in 302 W/m2
13:54 81.8 °F 69.5 °F 29.82 in Calm   2 mph 66.3% 0.00 in 343 W/m2
13:59 82 °F 69.7 °F 29.82 in Calm   2 mph 66.3% 0.00 in 330 W/m2
14:04 82.4 °F 70.2 °F 29.81 in Calm   2 mph 66.8% 0.00 in 299 W/m2
14:09 82.6 °F 69.2 °F 29.81 in Calm   1 mph 64% 0.00 in 301 W/m2
14:14 82.9 °F 69.4 °F 29.81 in SSW 0.2 mph 4 mph 63.8% 0.00 in 267 W/m2
14:19 83.1 °F 68.8 °F 29.80 in SSE 0.2 mph 4 mph 62.2% 0.00 in 251 W/m2
14:24 83.2 °F 68.8 °F 29.80 in West 0.1 mph 4 mph 61.8% 0.00 in 265 W/m2
14:29 83.3 °F 68.5 °F 29.80 in SSW 0.1 mph 4 mph 61.1% 0.00 in 278 W/m2
14:34 83.4 °F 69 °F 29.80 in Calm   4 mph 62% 0.00 in 281 W/m2
14:39 83.5 °F 69.1 °F 29.80 in SW 0.1 mph 2 mph 61.8% 0.00 in 292 W/m2
14:44 83.7 °F 68.9 °F 29.79 in WSW 0.1 mph 2 mph 61.2% 0.00 in 279 W/m2
14:49 83.6 °F 68.3 °F 29.79 in Calm   2 mph 60% 0.00 in 239 W/m2
14:54 83.5 °F 68.6 °F 29.79 in SSW 0.1 mph 2 mph 60.8% 0.00 in 316 W/m2
14:59 83.4 °F 68.8 °F 29.79 in SSW 0.1 mph 2 mph 61.4% 0.00 in 318 W/m2
15:04 83.4 °F 68.2 °F 29.79 in WSW 0.1 mph 2 mph 60.2% 0.00 in 297 W/m2
15:09 83.5 °F 68.4 °F 29.78 in WNW 0.1 mph 2 mph 60.4% 0.00 in 167 W/m2
15:14 83.4 °F 68.6 °F 29.78 in Calm   2 mph 61.2% 0.00 in 202 W/m2
15:19 83.3 °F 68.5 °F 29.78 in SSW 0.1 mph 2 mph 61% 0.00 in 202 W/m2
15:24 83.2 °F 68.4 °F 29.78 in SW 0.1 mph 2 mph 61.2% 0.00 in 176 W/m2
15:29 83 °F 68.4 °F 29.77 in Calm   2 mph 61.6% 0.00 in 176 W/m2
15:34 82.8 °F 68.3 °F 29.77 in SSW 0.1 mph 2 mph 61.7% 0.00 in 199 W/m2
15:39 82.7 °F 68.7 °F 29.77 in Calm   2 mph 62.6% 0.00 in 285 W/m2
15:44 82.7 °F 68.4 °F 29.77 in Calm   2 mph 62.1% 0.00 in 251 W/m2
15:49 82.7 °F 67.7 °F 29.76 in SSW 0.1 mph 2 mph 60.5% 0.00 in 229 W/m2
15:54 82.8 °F 68 °F 29.76 in SSW 0.1 mph 2 mph 61% 0.00 in 246 W/m2
15:59 83 °F 68.3 °F 29.76 in SW 0.1 mph 2 mph 61.3% 0.00 in 218 W/m2
16:00 83.1 °F 68.7 °F 29.76 in Calm   2 mph 62% 0.00 in 186 W/m2
16:09 83.5 °F 68.2 °F 29.76 in Calm   1 mph 60.2% 0.00 in 132 W/m2
16:14 83.6 °F 68.3 °F 29.76 in SW 0.1 mph 3 mph 60.2% 0.00 in 148 W/m2
16:19 83.6 °F 67.8 °F 29.76 in SW 0.4 mph 3 mph 59.1% 0.00 in 127 W/m2
16:24 83.5 °F 68 °F 29.76 in SW 0.3 mph 5 mph 59.7% 0.00 in 74 W/m2
16:29 83.2 °F 67.5 °F 29.76 in SW 0.1 mph 5 mph 59.2% 0.00 in 79 W/m2
16:34 82.8 °F 67 °F 29.75 in SW 0.2 mph 5 mph 58.9% 0.00 in 107 W/m2
16:39 82.5 °F 67.2 °F 29.76 in WSW 0.4 mph 7 mph 59.8% 0.00 in 153 W/m2
16:44 82.4 °F 67.1 °F 29.76 in SW 0.3 mph 7 mph 60% 0.00 in 174 W/m2
16:49 82.4 °F 67.3 °F 29.76 in Calm   7 mph 60.3% 0.00 in 172 W/m2
16:54 82.3 °F 66.9 °F 29.76 in SSW 0.1 mph 7 mph 59.8% 0.00 in 118 W/m2
16:59 82 °F 66.8 °F 29.76 in WSW 0.1 mph 7 mph 60% 0.00 in 102 W/m2
17:04 81.7 °F 66.9 °F 29.76 in Calm   7 mph 61% 0.00 in 88 W/m2
17:09 81.4 °F 67.1 °F 29.76 in Calm   1 mph 62% 0.00 in 67 W/m2
17:14 81.1 °F 67.2 °F 29.76 in Calm   1 mph 62.8% 0.00 in 39 W/m2
17:19 80.9 °F 67.3 °F 29.76 in Calm   1 mph 63.4% 0.00 in 49 W/m2
17:24 80.7 °F 67.5 °F 29.76 in SW 0.1 mph 3 mph 64.2% 0.00 in 62 W/m2
17:29 80.5 °F 67.7 °F 29.76 in Calm   3 mph 65% 0.00 in 63 W/m2
17:34 80.4 °F 67.9 °F 29.76 in Calm   3 mph 65.8% 0.00 in 58 W/m2
17:39 80.2 °F 67.8 °F 29.76 in WSW 0.1 mph 7 mph 66% 0.00 in 49 W/m2
17:44 80 °F 67.6 °F 29.76 in Calm   7 mph 66% 0.00 in 49 W/m2
17:49 79.8 °F 67.8 °F 29.75 in Calm   7 mph 66.8% 0.00 in 49 W/m2
17:54 79.7 °F 68 °F 29.75 in Calm   7 mph 67.5% 0.00 in 37 W/m2
17:59 79.6 °F 68.1 °F 29.75 in Calm   7 mph 68% 0.00 in 32 W/m2
18:04 79.4 °F 67.9 °F 29.75 in Calm   7 mph 68% 0.00 in 32 W/m2
18:09 79.3 °F 68.2 °F 29.75 in Calm   1 mph 68.8% 0.00 in 28 W/m2
18:14 79.2 °F 68.1 °F 29.75 in Calm   1 mph 69% 0.00 in 28 W/m2
18:19 79.1 °F 68 °F 29.75 in SW 0.1 mph 3 mph 69% 0.00 in 19 W/m2
18:24 78.9 °F 68.1 °F 29.75 in Calm   3 mph 69.5% 0.00 in 5 W/m2
18:29 78.8 °F 68.2 °F 29.75 in Calm   3 mph 70% 0.00 in 7 W/m2
18:34 78.6 °F 68 °F 29.75 in Calm   3 mph 70% 0.00 in 5 W/m2
18:39 78.5 °F 68.1 °F 29.75 in Calm   1 mph 70.5% 0.00 in 0 W/m2
18:44 78.3 °F 68.2 °F 29.75 in Calm   1 mph 71% 0.00 in 0 W/m2
18:49 78.2 °F 68.3 °F 29.77 in SSW 1 mph 12 mph 71.6% 0.01 in 0 W/m2
18:54 77.5 °F 69.2 °F 29.78 in WSW 5.8 mph 25 mph 75.6% 0.13 in 0 W/m2
18:59 75.1 °F 67.4 °F 29.78 in WSW 1.8 mph 25 mph 77.1% 0.19 in 0 W/m2
19:04 73 °F 66.8 °F 29.78 in WSW 0.4 mph 25 mph 80.7% 0.20 in 0 W/m2
19:09 71.8 °F 66.4 °F 29.78 in WSW 0.1 mph 7 mph 83.2% 0.21 in 0 W/m2
19:14 70.9 °F 66.3 °F 29.77 in Calm   7 mph 85.2% 0.21 in 0 W/m2
19:19 70.4 °F 66.2 °F 29.77 in Calm   7 mph 86.6% 0.21 in 0 W/m2
19:24 69.9 °F 66 °F 29.77 in Calm   7 mph 87.4% 0.21 in 0 W/m2
19:29 69.5 °F 66 °F 29.79 in Calm   7 mph 88.6% 0.21 in 0 W/m2
19:34 69.3 °F 66.2 °F 29.79 in Calm   7 mph 89.6% 0.21 in 0 W/m2
19:39 69.2 °F 66.2 °F 29.79 in Calm     90.2% 0.21 in 0 W/m2
19:44 68.9 °F 66.2 °F 29.79 in Calm     91% 0.21 in 0 W/m2
19:47 68.7 °F 66 °F 29.79 in Calm     91% 0.21 in 0 W/m2
20:09 67.8 °F 65.4 °F 29.79 in Calm     92% 0.21 in 0 W/m2
20:14 67.7 °F 65.3 °F 29.79 in Calm     92% 0.21 in 0 W/m2
20:18 67.6 °F 65.2 °F 29.80 in Calm     92% 0.21 in 0 W/m2
20:24 67.6 °F 65.5 °F 29.80 in Calm     92.8% 0.21 in 0 W/m2
20:29 67.6 °F 65.5 °F 29.81 in Calm     93% 0.21 in 0 W/m2
20:34 67.6 °F 65.5 °F 29.81 in Calm     93% 0.21 in 0 W/m2
20:39 67.6 °F 65.5 °F 29.81 in Calm     93% 0.00 in 0 W/m2
20:44 67.6 °F 65.5 °F 29.81 in Calm     93% 0.00 in 0 W/m2
20:49 67.6 °F 65.5 °F 29.81 in Calm     93% 0.00 in 0 W/m2
20:54 67.6 °F 65.8 °F 29.80 in Calm     93.9% 0.00 in 0 W/m2
20:59 67.5 °F 65.7 °F 29.81 in Calm     94% 0.00 in 0 W/m2
21:04 67.5 °F 65.7 °F 29.81 in Calm     94% 0.00 in 0 W/m2
21:09 67.4 °F 65.7 °F 29.81 in Calm     94% 0.00 in 0 W/m2
21:14 67.4 °F 65.6 °F 29.80 in Calm     94% 0.00 in 0 W/m2
21:19 67.3 °F 65.5 °F 29.80 in Calm     94% 0.00 in 0 W/m2
21:24 67.2 °F 65.4 °F 29.80 in Calm     94% 0.00 in 0 W/m2
21:29 67.1 °F 65.3 °F 29.80 in Calm     94% 0.00 in 0 W/m2
21:34 67 °F 65.2 °F 29.80 in Calm     94% 0.00 in 0 W/m2
21:39 66.9 °F 65.1 °F 29.80 in Calm     94% 0.00 in 0 W/m2
21:44 66.8 °F 65 °F 29.80 in Calm     94% 0.00 in 0 W/m2
21:49 66.8 °F 65 °F 29.80 in Calm     94% 0.00 in 0 W/m2
21:54 66.8 °F 65 °F 29.80 in Calm     94% 0.00 in 0 W/m2
21:59 66.8 °F 65.2 °F 29.80 in Calm   1 mph 94.6% 0.00 in 0 W/m2
22:04 66.8 °F 65 °F 29.80 in Calm   1 mph 94.1% 0.00 in 0 W/m2
22:09 66.7 °F 64.9 °F 29.80 in Calm     94% 0.00 in 0 W/m2
22:14 66.6 °F 64.8 °F 29.80 in Calm     94% 0.00 in 0 W/m2
22:19 66.6 °F 64.8 °F 29.80 in Calm     94% 0.00 in 0 W/m2
22:24 66.5 °F 65 °F 29.80 in Calm     94.8% 0.00 in 0 W/m2
22:29 66.5 °F 65 °F 29.80 in Calm     95% 0.01 in 0 W/m2
22:34 66.5 °F 65 °F 29.80 in Calm     95% 0.01 in 0 W/m2
22:39 66.4 °F 64.9 °F 29.80 in Calm     95% 0.01 in 0 W/m2
22:44 66.3 °F 64.9 °F 29.80 in Calm     95% 0.01 in 0 W/m2
22:49 66.3 °F 64.8 °F 29.80 in Calm     95% 0.01 in 0 W/m2
22:54 66.3 °F 64.8 °F 29.80 in Calm     95% 0.01 in 0 W/m2
22:59 66.3 °F 64.8 °F 29.80 in Calm     95% 0.01 in 0 W/m2
23:04 66.3 °F 64.8 °F 29.80 in Calm     95% 0.01 in 0 W/m2
23:09 66.3 °F 64.8 °F 29.80 in Calm     95% 0.01 in 0 W/m2
23:14 66.3 °F 64.8 °F 29.80 in Calm     95% 0.01 in 0 W/m2
23:19 66.2 °F 64.8 °F 29.80 in Calm     95% 0.01 in 0 W/m2
23:24 66.3 °F 64.8 °F 29.80 in Calm     95% 0.01 in 0 W/m2
23:29 66.2 °F 64.8 °F 29.80 in Calm     95% 0.01 in 0 W/m2
23:34 66.2 °F 64.7 °F 29.79 in Calm     95% 0.01 in 0 W/m2
23:39 66.2 °F 64.7 °F 29.79 in Calm     95% 0.00 in 0 W/m2
23:44 66.2 °F 64.7 °F 29.79 in Calm     95% 0.00 in 0 W/m2
23:49 66.1 °F 64.7 °F 29.79 in Calm     95% 0.00 in 0 W/m2
23:54 66.1 °F 64.6 °F 29.79 in Calm     95% 0.00 in 0 W/m2
23:59 66 °F 64.6 °F 29.79 in Calm     95% 0.00 in 0 W/m2
Hartford County Weather
Compliments of Weather Underground - 2 mb